Time;durP1;ratioP1;P1;durP2;ratioP2;P2;SDS_P1;SDS_P2;PMS_P1;PMS_P2;Temp;Humidity;BMP_temperature;BMP_pressure;BME280_temperature;BME280_humidity;BME280_pressure;Samples;Min_cycle;Max_cycle;Signal;HPM_P1;HPM_P2
2022/07/28 00:00:27;;;;;;;6.07;1.48;;;;;;;18.68;48.30;101884.47;6273599;22;20022;-67
2022/07/28 00:02:53;;;;;;;4.20;1.38;;;;;;;18.62;48.40;101874.34;6275572;22;20004;-67
2022/07/28 00:05:18;;;;;;;5.50;1.48;;;;;;;18.65;48.30;101876.59;6272257;22;20478;-67
2022/07/28 00:07:44;;;;;;;5.60;1.70;;;;;;;18.62;48.32;101878.00;6273832;22;20015;-67
2022/07/28 00:10:10;;;;;;;4.30;1.50;;;;;;;18.61;48.35;101869.84;6275193;22;20050;-67
2022/07/28 00:12:35;;;;;;;4.38;1.45;;;;;;;18.57;48.49;101871.56;6273164;22;20060;-67
2022/07/28 00:15:01;;;;;;;3.03;1.80;;;;;;;18.57;48.30;101878.00;6272863;22;20111;-68
2022/07/28 00:17:26;;;;;;;3.63;1.48;;;;;;;18.54;48.20;101867.31;6274038;22;20084;-68
2022/07/28 00:19:51;;;;;;;3.17;1.55;;;;;;;18.52;48.31;101869.59;6272925;22;20000;-67
2022/07/28 00:22:18;;;;;;;5.63;1.90;;;;;;;18.49;48.38;101870.16;6273448;22;20374;-67
2022/07/28 00:24:43;;;;;;;4.45;1.95;;;;;;;18.42;48.71;101871.56;6273960;22;20505;-67
2022/07/28 00:27:08;;;;;;;3.00;1.60;;;;;;;18.44;48.49;101875.78;6272763;22;20019;-67
2022/07/28 00:29:34;;;;;;;4.97;1.48;;;;;;;18.34;48.53;101870.13;6272672;22;20034;-67
2022/07/28 00:32:00;;;;;;;4.30;1.70;;;;;;;18.39;48.74;101865.38;6272770;22;20012;-68
2022/07/28 00:34:25;;;;;;;7.72;2.03;;;;;;;18.28;49.18;101866.50;6273385;22;20023;-68
2022/07/28 00:36:56;;;;;;;3.83;1.50;;;;;;;18.32;48.80;101862.00;6272517;22;20066;-67
2022/07/28 00:39:22;;;;;;;5.15;1.40;;;;;;;18.31;48.93;101871.56;6275280;22;20000;-67
2022/07/28 00:41:47;;;;;;;5.10;1.70;;;;;;;18.29;48.70;101864.53;6273366;22;20011;-67
2022/07/28 00:44:12;;;;;;;4.15;1.48;;;;;;;18.30;48.69;101864.25;6275291;22;20328;-67
2022/07/28 00:46:38;;;;;;;3.25;1.63;;;;;;;18.29;48.58;101875.78;6274784;22;20010;-67
2022/07/28 00:49:03;;;;;;;8.30;1.70;;;;;;;18.26;48.64;101871.53;6274671;22;20077;-67
2022/07/28 00:51:29;;;;;;;3.85;1.38;;;;;;;18.21;48.95;101863.13;6273063;22;20416;-67
2022/07/28 00:53:55;;;;;;;5.68;1.85;;;;;;;18.22;48.90;101859.19;6274216;22;20004;-67
2022/07/28 00:56:21;;;;;;;4.05;1.60;;;;;;;18.15;49.16;101850.19;6275191;22;20007;-66
2022/07/28 00:58:48;;;;;;;4.05;1.55;;;;;;;18.15;49.05;101842.59;6275240;22;20098;-67
2022/07/28 01:01:16;;;;;;;2.92;1.50;;;;;;;18.16;48.94;101846.25;6273973;22;20038;-67
2022/07/28 01:03:45;;;;;;;3.97;1.50;;;;;;;18.14;49.04;101840.91;6274831;22;20034;-66
2022/07/28 01:06:38;;;;;;;3.78;1.63;;;;;;;18.07;49.16;101851.56;6274379;22;20366;-67
2022/07/28 01:09:26;;;;;;;9.40;1.98;;;;;;;18.10;49.03;101853.00;6273645;22;20011;-67
2022/07/28 01:12:28;;;;;;;3.65;1.40;;;;;;;18.12;49.01;101856.38;6274966;22;20007;-67
2022/07/28 01:15:04;;;;;;;4.00;1.30;;;;;;;18.10;49.07;101844.56;6274279;22;20065;-67
2022/07/28 01:17:36;;;;;;;4.28;1.77;;;;;;;18.01;49.24;101851.88;6275156;22;20027;-67
2022/07/28 01:20:09;;;;;;;3.25;1.50;;;;;;;17.97;49.31;101847.94;6273969;22;20418;-68
2022/07/28 01:23:00;;;;;;;5.68;1.50;;;;;;;17.95;49.42;101847.34;6272969;22;20415;-67
2022/07/28 01:25:57;;;;;;;6.47;1.60;;;;;;;17.94;49.54;101843.69;6276522;22;20316;-68
2022/07/28 01:28:31;;;;;;;3.63;1.60;;;;;;;17.81;49.95;101841.44;6276764;22;20092;-67
2022/07/28 01:31:04;;;;;;;4.50;1.60;;;;;;;17.81;50.19;101847.91;6274769;22;20087;-67
2022/07/28 01:33:35;;;;;;;;;;;;;;;18.04;49.16;101846.53;6276493;22;20008;-67
2022/07/28 01:36:07;;;;;;;3.97;1.83;;;;;;;17.80;50.31;101840.59;6276076;22;19907;-67
2022/07/28 01:38:34;;;;;;;3.75;1.70;;;;;;;17.76;50.46;101838.59;6277351;22;20019;-68
2022/07/28 01:41:04;;;;;;;7.32;1.48;;;;;;;17.63;50.68;101839.94;6276491;22;20007;-67
2022/07/28 01:43:33;;;;;;;3.88;1.80;;;;;;;17.63;50.79;101837.97;6275393;22;20000;-67
2022/07/28 01:46:01;;;;;;;5.32;1.88;;;;;;;17.63;50.88;101823.94;6276836;22;20042;-67
2022/07/28 01:48:28;;;;;;;3.70;1.95;;;;;;;17.61;50.85;101822.56;6276818;22;20003;-67
2022/07/28 01:50:55;;;;;;;5.68;2.15;;;;;;;17.67;50.54;101827.03;6275554;22;20000;-67
2022/07/28 01:53:23;;;;;;;2.75;1.70;;;;;;;17.65;50.47;101832.09;6276360;22;20003;-67
2022/07/28 01:55:50;;;;;;;5.45;1.90;;;;;;;17.61;50.50;101825.34;6276717;22;20011;-67
2022/07/28 01:58:19;;;;;;;3.80;1.90;;;;;;;17.56;50.65;101819.72;6274631;22;20419;-68
2022/07/28 02:00:48;;;;;;;3.55;1.77;;;;;;;17.42;51.18;101823.06;6276045;22;20513;-67
2022/07/28 02:03:17;;;;;;;4.13;2.00;;;;;;;17.38;51.13;101821.91;6275752;22;20102;-67
2022/07/28 02:05:44;;;;;;;5.53;2.15;;;;;;;17.39;50.79;101817.16;6275482;22;20012;-67
2022/07/28 02:08:11;;;;;;;6.22;1.90;;;;;;;17.36;51.21;101810.09;6276070;22;20011;-67
2022/07/28 02:10:41;;;;;;;2.13;1.92;;;;;;;17.29;51.66;101815.16;6276293;22;20004;-67
2022/07/28 02:13:08;;;;;;;5.43;1.90;;;;;;;17.36;51.25;101812.91;6274980;22;20070;-67
2022/07/28 02:15:36;;;;;;;4.25;2.00;;;;;;;17.33;51.30;101809.81;6275997;22;20003;-67
2022/07/28 02:18:01;;;;;;;3.30;1.95;;;;;;;17.35;51.35;101811.22;6276502;22;20000;-67
2022/07/28 02:20:28;;;;;;;4.40;2.08;;;;;;;17.34;51.36;101814.34;6275730;22;20073;-67
2022/07/28 02:22:54;;;;;;;5.55;1.90;;;;;;;17.31;51.26;101809.25;6275801;22;20022;-67
2022/07/28 02:25:20;;;;;;;4.68;2.40;;;;;;;17.35;51.39;101810.41;6275576;22;20376;-67
2022/07/28 02:27:50;;;;;;;5.90;2.17;;;;;;;17.26;51.55;101812.06;6276104;22;20046;-67
2022/07/28 02:30:23;;;;;;;6.60;2.67;;;;;;;17.24;51.59;101808.66;6275938;22;20000;-67
2022/07/28 02:32:57;;;;;;;5.75;2.15;;;;;;;17.26;51.36;101801.66;6273681;22;20008;-67
2022/07/28 02:35:37;;;;;;;3.58;2.25;;;;;;;17.31;51.22;101807.28;6276201;22;20012;-67
2022/07/28 02:38:10;;;;;;;4.90;1.92;;;;;;;17.24;51.29;101817.91;6276102;22;20058;-67
2022/07/28 02:40:38;;;;;;;7.00;2.30;;;;;;;17.19;51.61;101809.50;6275597;22;20003;-67
2022/07/28 02:43:09;;;;;;;5.13;2.53;;;;;;;17.24;51.35;101806.69;6275532;22;20003;-67
2022/07/28 02:45:38;;;;;;;5.85;2.75;;;;;;;17.12;51.58;101806.94;6275649;22;20354;-67
2022/07/28 02:48:09;;;;;;;4.30;2.03;;;;;;;17.09;51.63;101809.44;6275255;22;20095;-68
2022/07/28 02:50:34;;;;;;;3.33;2.08;;;;;;;17.08;51.82;101810.56;6274518;22;20081;-68
2022/07/28 02:53:02;;;;;;;8.48;2.80;;;;;;;17.05;51.62;101808.31;6275523;22;20008;-68
2022/07/28 02:55:29;;;;;;;5.05;2.40;;;;;;;17.05;51.43;101811.09;6275507;22;20000;-67
2022/07/28 02:57:57;;;;;;;5.15;1.90;;;;;;;17.06;51.49;101812.81;6275756;22;20014;-67
2022/07/28 03:00:23;;;;;;;4.53;2.20;;;;;;;17.05;51.40;101805.50;6273452;22;20004;-68
2022/07/28 03:02:50;;;;;;;5.80;2.28;;;;;;;17.05;51.22;101811.94;6275731;22;20029;-68
2022/07/28 03:05:15;;;;;;;6.15;2.10;;;;;;;17.04;51.27;101809.44;6276217;22;20077;-67
2022/07/28 03:07:42;;;;;;;3.17;1.85;;;;;;;16.94;51.62;101807.44;6274908;22;20430;-68
2022/07/28 03:10:08;;;;;;;4.40;2.10;;;;;;;17.00;51.26;101813.91;6275963;22;20035;-67
2022/07/28 03:12:34;;;;;;;4.53;2.20;;;;;;;16.90;51.28;101798.72;6275419;22;20007;-67
2022/07/28 03:14:59;;;;;;;5.35;1.98;;;;;;;16.97;51.00;101792.00;6275116;22;20129;-67
2022/07/28 03:17:24;;;;;;;6.15;2.00;;;;;;;16.78;51.61;101808.44;6275509;22;20004;-67
2022/07/28 03:19:49;;;;;;;5.15;2.08;;;;;;;16.81;51.52;101803.13;6275403;22;20388;-67
2022/07/28 03:22:15;;;;;;;3.75;1.90;;;;;;;16.77;51.66;101802.00;6273624;22;20039;-67
2022/07/28 03:24:49;;;;;;;7.10;2.20;;;;;;;16.79;51.55;101812.94;6274140;22;20015;-67
2022/07/28 03:27:36;;;;;;;4.00;2.28;;;;;;;16.83;51.40;101814.09;6276039;22;20012;-68
2022/07/28 03:30:06;;;;;;;3.83;2.03;;;;;;;16.74;51.48;101810.97;6274926;22;20004;-67
2022/07/28 03:32:40;;;;;;;3.10;2.00;;;;;;;16.65;51.82;101806.94;6273741;22;20419;-67
2022/07/28 03:35:06;;;;;;;4.25;1.90;;;;;;;16.64;51.71;101806.09;6274893;22;20014;-67
2022/07/28 03:37:37;;;;;;;5.43;1.95;;;;;;;16.59;51.73;101808.03;6274119;22;20008;-67
2022/07/28 03:40:04;;;;;;;6.38;1.73;;;;;;;16.62;51.58;101813.06;6275774;22;20011;-67
2022/07/28 03:42:31;;;;;;;4.72;2.00;;;;;;;16.68;51.61;101812.00;6274780;22;20011;-67
2022/07/28 03:44:59;;;;;;;4.00;2.20;;;;;;;16.59;51.66;101810.84;6275722;22;20000;-67
2022/07/28 03:47:24;;;;;;;5.35;2.05;;;;;;;16.56;51.89;101808.56;6274121;22;20296;-67
2022/07/28 03:49:50;;;;;;;5.72;2.03;;;;;;;16.50;51.87;101804.88;6274889;22;20010;-67
2022/07/28 03:52:16;;;;;;;4.60;1.85;;;;;;;16.49;51.70;101806.00;6274795;22;20007;-67
2022/07/28 03:54:42;;;;;;;9.18;2.15;;;;;;;16.50;51.80;101799.25;6275635;22;20007;-67
2022/07/28 03:57:07;;;;;;;3.92;2.30;;;;;;;16.53;51.76;101797.88;6273140;22;20412;-67
2022/07/28 03:59:33;;;;;;;5.30;2.10;;;;;;;16.55;51.58;101801.28;6275568;22;20416;-67
2022/07/28 04:01:58;;;;;;;6.28;2.33;;;;;;;16.49;51.75;101802.34;6273510;22;20015;-67
2022/07/28 04:04:23;;;;;;;2.22;1.95;;;;;;;16.45;51.77;101797.28;6274038;22;20438;-67
2022/07/28 04:06:49;;;;;;;8.02;2.42;;;;;;;16.53;51.55;101803.50;6274321;22;20035;-67
2022/07/28 04:09:15;;;;;;;5.38;2.25;;;;;;;16.48;51.62;101795.06;6274165;22;20105;-67
2022/07/28 04:11:41;;;;;;;5.03;2.15;;;;;;;16.47;51.49;101796.19;6272994;22;20008;-67
2022/07/28 04:14:06;;;;;;;5.85;2.10;;;;;;;16.44;51.60;101797.56;6274630;22;20035;-67
2022/07/28 04:16:32;;;;;;;7.90;2.30;;;;;;;16.47;51.55;101799.81;6274992;22;20398;-67
2022/07/28 04:18:57;;;;;;;4.88;2.20;;;;;;;16.42;51.29;101803.41;6273875;22;20063;-67
2022/07/28 04:21:22;;;;;;;5.47;2.10;;;;;;;16.43;51.44;101802.31;6275139;22;20043;-68
2022/07/28 04:23:48;;;;;;;3.60;2.35;;;;;;;16.48;51.55;101800.66;6275301;22;20079;-68
2022/07/28 04:26:14;;;;;;;8.18;2.20;;;;;;;16.44;51.62;101797.56;6273314;22;20379;-67
2022/07/28 04:28:39;;;;;;;6.60;2.15;;;;;;;16.44;51.60;101800.34;6275393;22;20011;-68
2022/07/28 04:31:04;;;;;;;2.83;2.03;;;;;;;16.49;51.45;101791.13;6275121;22;20010;-67
2022/07/28 04:33:29;;;;;;;6.20;2.33;;;;;;;16.48;51.53;101800.66;6274459;22;20008;-68
2022/07/28 04:35:55;;;;;;;4.57;2.08;;;;;;;16.45;51.62;101802.88;6274516;22;19999;-68
2022/07/28 04:38:23;;;;;;;8.15;2.10;;;;;;;16.51;51.36;101800.97;6274906;22;19996;-68
2022/07/28 04:40:48;;;;;;;4.80;2.13;;;;;;;16.48;51.54;101801.50;6274284;22;20323;-68
2022/07/28 04:43:14;;;;;;;4.45;2.28;;;;;;;16.43;51.69;101807.09;6275408;22;20008;-68
2022/07/28 04:45:40;;;;;;;6.43;1.95;;;;;;;16.44;51.84;101789.16;6275387;22;20007;-68
2022/07/28 04:48:05;;;;;;;4.07;1.90;;;;;;;16.45;51.63;101791.66;6273279;22;20046;-68
2022/07/28 04:50:31;;;;;;;6.07;2.35;;;;;;;16.48;51.66;101790.28;6275013;22;20000;-68
2022/07/28 04:52:57;;;;;;;5.13;2.22;;;;;;;16.45;51.80;101791.66;6273428;22;20324;-68
2022/07/28 04:55:23;;;;;;;4.78;2.17;;;;;;;16.44;51.76;101795.59;6274297;22;20011;-68
2022/07/28 04:57:48;;;;;;;4.53;2.15;;;;;;;16.44;52.18;101795.59;6268741;22;20066;-67
2022/07/28 05:00:14;;;;;;;5.15;2.47;;;;;;;16.48;51.96;101800.66;6271555;22;19999;-68
2022/07/28 05:02:49;;;;;;;3.72;2.10;;;;;;;16.49;51.81;101802.34;6272912;22;20007;-68
2022/07/28 05:05:14;;;;;;;5.78;2.20;;;;;;;16.48;52.13;101800.66;6274147;22;20043;-69
2022/07/28 05:07:40;;;;;;;5.93;2.53;;;;;;;16.44;52.24;101798.41;6273084;22;20007;-68
2022/07/28 05:10:07;;;;;;;5.03;2.55;;;;;;;16.41;52.46;101798.09;6273575;22;20012;-69
2022/07/28 05:12:36;;;;;;;3.55;2.40;;;;;;;16.41;52.37;101796.13;6275177;22;20007;-68
2022/07/28 05:15:01;;;;;;;5.05;2.35;;;;;;;16.45;52.33;101802.03;6273007;22;20011;-69
2022/07/28 05:17:27;;;;;;;3.97;2.15;;;;;;;16.47;52.43;101808.22;6273239;22;20481;-69
2022/07/28 05:19:52;;;;;;;7.68;2.53;;;;;;;16.43;52.76;101802.31;6272680;22;20493;-69
2022/07/28 05:22:18;;;;;;;7.78;2.65;;;;;;;16.47;52.67;101804.59;6272707;22;20090;-69
2022/07/28 05:24:43;;;;;;;4.93;2.55;;;;;;;16.45;52.71;101800.06;6273650;22;20027;-68
2022/07/28 05:27:10;;;;;;;5.05;2.40;;;;;;;16.49;52.81;101807.94;6271885;22;20442;-69
2022/07/28 05:29:39;;;;;;;6.07;2.30;;;;;;;16.51;52.75;101805.75;6272402;22;20011;-68
2022/07/28 05:32:06;;;;;;;4.78;2.50;;;;;;;16.50;52.96;101804.88;6272033;22;20448;-69
2022/07/28 05:34:31;;;;;;;5.68;2.30;;;;;;;16.53;52.96;101814.72;6273628;22;20014;-70
2022/07/28 05:36:56;;;;;;;5.22;2.58;;;;;;;16.55;53.00;101813.34;6272989;22;20379;-69
2022/07/28 05:39:23;;;;;;;4.03;2.58;;;;;;;16.47;53.35;101808.22;6273974;22;20007;-67
2022/07/28 05:41:48;;;;;;;5.55;2.70;;;;;;;16.57;53.06;101811.09;6274608;22;20007;-67
2022/07/28 05:44:13;;;;;;;7.88;2.65;;;;;;;16.63;52.98;101803.56;6272892;22;20816;-67
2022/07/28 05:46:39;;;;;;;6.00;2.65;;;;;;;16.56;53.35;101803.81;6274181;22;20008;-68
2022/07/28 05:49:04;;;;;;;6.90;2.50;;;;;;;16.61;53.38;101811.41;6272017;22;20004;-68
2022/07/28 05:51:30;;;;;;;6.18;2.25;;;;;;;16.72;53.17;101806.69;6273986;22;20008;-68
2022/07/28 05:53:55;;;;;;;4.53;2.42;;;;;;;16.80;53.05;101809.88;6273800;22;20416;-67
2022/07/28 05:56:21;;;;;;;5.90;2.20;;;;;;;16.86;52.33;101807.94;6272983;22;20008;-67
2022/07/28 05:58:47;;;;;;;8.50;2.58;;;;;;;16.80;52.74;101809.88;6272949;22;20010;-68
2022/07/28 06:01:13;;;;;;;6.35;2.40;;;;;;;16.77;52.94;101812.38;6273017;22;20078;-68
2022/07/28 06:03:38;;;;;;;4.63;2.35;;;;;;;16.74;53.36;101807.28;6272029;22;20063;-68
2022/07/28 06:06:04;;;;;;;6.05;2.20;;;;;;;16.80;53.19;101809.88;6270933;22;20008;-68
2022/07/28 06:08:30;;;;;;;7.20;2.80;;;;;;;16.82;52.84;101810.44;6272559;22;20008;-67
2022/07/28 06:10:58;;;;;;;6.22;2.42;;;;;;;16.85;52.78;101809.88;6273718;22;20129;-68
2022/07/28 06:13:24;;;;;;;5.72;2.15;;;;;;;16.88;52.69;101812.16;6274974;22;20018;-68
2022/07/28 06:15:51;;;;;;;4.90;1.60;;;;;;;17.10;54.28;101814.78;6274540;22;20033;-66
2022/07/28 06:18:21;;;;;;;3.40;1.40;;;;;;;17.38;56.03;101809.84;6273359;22;20008;-66
2022/07/28 06:20:47;;;;;;;2.25;1.40;;;;;;;17.61;54.88;101806.56;6276391;22;20022;-66
2022/07/28 06:23:19;;;;;;;3.40;1.15;;;;;;;17.74;53.81;101804.31;6275345;22;20011;-66
2022/07/28 06:25:47;;;;;;;1.73;1.02;;;;;;;17.89;53.83;101808.03;6272425;22;20038;-66
2022/07/28 06:28:13;;;;;;;4.40;1.60;;;;;;;18.04;52.90;101810.00;6273379;22;20065;-66
2022/07/28 06:30:38;;;;;;;4.93;1.73;;;;;;;18.05;51.19;101802.44;6274953;22;20007;-65
2022/07/28 06:33:07;;;;;;;6.10;1.75;;;;;;;18.11;51.86;101802.13;6271142;22;20419;-65
2022/07/28 06:35:33;;;;;;;5.45;1.90;;;;;;;18.26;51.66;101803.25;6273826;22;20407;-66
2022/07/28 06:38:00;;;;;;;7.63;2.00;;;;;;;18.23;51.14;101813.09;6275167;22;20088;-66
2022/07/28 06:40:26;;;;;;;3.47;1.50;;;;;;;18.29;51.32;101809.16;6273539;22;20035;-66
2022/07/28 06:42:51;;;;;;;2.15;1.40;;;;;;;18.35;50.82;101809.97;6274715;22;20434;-66
2022/07/28 06:45:17;;;;;;;4.45;1.40;;;;;;;18.42;50.28;101815.34;6275442;22;20438;-67
2022/07/28 06:47:43;;;;;;;4.43;1.35;;;;;;;18.46;49.71;101806.03;6274973;22;20019;-66
2022/07/28 06:50:09;;;;;;;2.53;1.50;;;;;;;18.50;50.71;101806.31;6275632;22;20012;-66
2022/07/28 06:52:36;;;;;;;3.83;1.40;;;;;;;18.56;49.52;101803.22;6275216;22;20011;-65
2022/07/28 06:55:03;;;;;;;3.40;1.25;;;;;;;18.56;48.64;101808.00;6275466;22;20771;-67
2022/07/28 06:57:28;;;;;;;4.45;1.90;;;;;;;18.49;50.26;101807.47;6274834;22;20439;-67
2022/07/28 06:59:53;;;;;;;2.60;1.52;;;;;;;18.67;51.09;101809.69;6274801;22;20003;-66
2022/07/28 07:02:19;;;;;;;3.00;1.10;;;;;;;18.75;50.70;101811.94;6274752;22;20003;-66
2022/07/28 07:04:44;;;;;;;4.80;1.73;;;;;;;18.72;49.63;101812.50;6276049;22;20027;-67
2022/07/28 07:07:10;;;;;;;6.57;1.80;;;;;;;18.82;49.85;101817.25;6273830;22;20330;-68
2022/07/28 07:09:35;;;;;;;4.88;2.15;;;;;;;18.65;48.23;101809.94;6274486;22;20043;-67
2022/07/28 07:34:15;;;;;;;;;;;;;;;;;;;;;
2022/07/28 07:37:31;;;;;;;;;;;;;;;;;;;;;
2022/07/28 07:51:00;;;;;;;;;;;;;;;;;;;;;
2022/07/28 07:58:08;;;;;;;4.82;1.52;;;;;;;19.41;47.81;101790.28;5812029;24;20026;-72
2022/07/28 08:04:45;;;;;;;3.47;1.50;;;;;;;19.52;47.32;101786.28;5984534;23;20035;-71
2022/07/28 08:11:47;;;;;;;7.72;1.70;;;;;;;19.58;46.64;101785.97;6108386;23;20036;-73
2022/07/28 08:18:13;;;;;;;4.80;1.75;;;;;;;19.83;46.54;101787.78;6142662;23;20049;-74
2022/07/28 08:21:11;;;;;;;3.15;1.23;;;;;;;19.80;46.00;101771.47;6215134;22;20082;-73
2022/07/28 08:24:16;;;;;;;6.00;1.77;;;;;;;19.91;46.51;101793.94;6273500;22;20014;-77
2022/07/28 08:27:47;;;;;;;;;;;;;;;;;;;;;
2022/07/28 08:34:07;;;;;;;4.75;1.67;;;;;;;19.97;45.81;101784.34;6251173;22;20503;-75
2022/07/28 08:37:45;;;;;;;;;;;;;;;;;;;;;
2022/07/28 08:51:36;;;;;;;;;;;;;;;;;;;;;
2022/07/28 08:54:49;;;;;;;3.90;1.60;;;;;;;20.57;44.78;101773.66;6266711;22;20368;-78
2022/07/28 08:57:55;;;;;;;7.47;1.88;;;;;;;20.60;45.12;101767.41;6270935;22;20007;-76
2022/07/28 09:01:12;;;;;;;;;;;;;;;;;;;;;
2022/07/28 09:04:18;;;;;;;4.25;1.42;;;;;;;20.81;45.06;101771.66;6130325;22;20071;-77
2022/07/28 09:08:14;;;;;;;;;;;;;;;;;;;;;
2022/07/28 09:21:48;;;;;;;7.07;1.70;;;;;;;20.98;43.88;101745.78;6271492;22;20023;-71
2022/07/28 09:24:50;;;;;;;4.75;2.10;;;;;;;21.00;43.97;101723.75;6265124;22;20008;-72
2022/07/28 09:31:13;;;;;;;3.30;1.30;;;;;;;21.15;43.27;101727.53;6271729;22;20531;-73
2022/07/28 09:34:29;;;;;;;6.03;1.50;;;;;;;21.24;43.32;101715.22;6270452;22;20011;-75
2022/07/28 09:37:44;;;;;;;4.65;1.33;;;;;;;21.29;43.56;101712.31;6141238;23;20013;-72
2022/07/28 09:44:50;;;;;;;;;;;;;;;;;;;;;
2022/07/28 10:02:04;;;;;;;6.47;1.83;;;;;;;21.58;42.30;101719.84;6120864;23;20018;-70
2022/07/28 10:12:31;;;;;;;;;;;;;;;;;;;;;
2022/07/28 10:29:12;;;;;;;5.75;1.23;;;;;;;21.76;40.73;101704.84;6091381;23;20042;-74
2022/07/28 10:36:11;;;;;;;;;;;;;;;;;;;;;
2022/07/28 10:40:02;;;;;;;7.10;1.48;;;;;;;21.93;40.24;101701.47;6146498;23;20367;-74
2022/07/28 10:45:53;;;;;;;3.97;1.42;;;;;;;21.95;40.09;101689.84;6240177;22;20454;-71
2022/07/28 10:49:04;;;;;;;;;;;;;;;;;;;;;
2022/07/28 11:08:30;;;;;;;3.67;1.30;;;;;;;22.06;39.71;101683.69;6139388;23;20079;-76
2022/07/28 11:15:06;;;;;;;5.15;1.60;;;;;;;22.05;39.14;101669.88;6180018;23;20369;-73
2022/07/28 11:18:15;;;;;;;6.05;1.45;;;;;;;22.11;39.24;101662.97;6129113;23;20428;-76
2022/07/28 11:28:11;;;;;;;;;;;;;;;;;;;;;
2022/07/28 11:31:21;;;;;;;5.18;1.25;;;;;;;22.38;39.44;101655.69;6226060;23;20004;-70
2022/07/28 11:38:13;;;;;;;2.13;1.13;;;;;;;22.40;39.33;101659.03;6149614;23;20233;-73
2022/07/28 11:52:15;;;;;;;4.22;1.50;;;;;;;22.38;38.26;101639.56;6048357;23;20098;-72
2022/07/28 11:55:37;;;;;;;;;;;;;;;;;;;;;
2022/07/28 11:58:49;;;;;;;;;;;;;;;;;;;;;
2022/07/28 12:22:53;;;;;;;5.88;1.30;;;;;;;22.77;38.06;101622.03;6090158;23;20052;-74
2022/07/28 12:35:47;;;;;;;2.28;1.13;;;;;;;22.83;36.84;101616.25;6202171;22;20008;-70
2022/07/28 12:57:08;;;;;;;9.13;1.23;;;;;;;23.14;37.17;101607.91;6134295;22;20113;-70
2022/07/28 13:01:48;;;;;;;3.13;1.30;;;;;;;23.08;37.54;101597.88;6134262;22;20023;-72
2022/07/28 13:08:11;;;;;;;6.93;1.10;;;;;;;23.12;37.22;101591.25;5999977;23;20021;-72
2022/07/28 13:11:07;;;;;;;;;;;;;;;23.18;37.22;101592.78;6130335;22;20016;-75
2022/07/28 13:22:00;;;;;;;;;;;;;;;;;;;;;
2022/07/28 13:24:55;;;;;;;3.08;1.17;;;;;;;23.04;36.88;101597.69;6089691;23;20081;-70
2022/07/28 13:28:18;;;;;;;4.00;1.25;;;;;;;23.00;37.46;101593.81;6058586;23;20022;-70
2022/07/28 13:31:18;;;;;;;1.92;1.20;;;;;;;23.01;36.44;101587.00;6087281;23;20033;-72
2022/07/28 13:34:43;;;;;;;;;;;;;;;;;;;;;
2022/07/28 13:37:45;;;;;;;3.88;1.30;;;;;;;23.02;36.44;101578.16;6165922;23;20761;-70
2022/07/28 13:40:57;;;;;;;2.95;1.00;;;;;;;23.14;37.21;101590.94;6181650;23;20013;-69
2022/07/28 13:55:24;;;;;;;2.05;1.08;;;;;;;23.21;36.91;101586.50;6002368;23;20019;-72
2022/07/28 13:58:44;;;;;;;5.13;1.20;;;;;;;23.14;37.22;101573.94;6008494;23;20007;-70
2022/07/28 14:01:50;;;;;;;7.28;1.40;;;;;;;23.21;37.42;101566.66;6009058;23;20054;-70
2022/07/28 14:05:02;;;;;;;2.80;1.13;;;;;;;23.32;37.37;101577.75;6062074;23;20011;-71
2022/07/28 14:15:16;;;;;;;3.53;1.20;;;;;;;23.44;37.23;101549.66;6094598;23;20052;-68
2022/07/28 14:18:35;;;;;;;3.90;1.10;;;;;;;23.47;36.54;101561.19;6030805;23;20081;-69
2022/07/28 14:29:13;;;;;;;;;;;;;;;;;;;;;
2022/07/28 14:32:14;;;;;;;3.90;1.30;;;;;;;23.36;36.61;101559.78;5850962;24;20110;-68
2022/07/28 14:35:37;;;;;;;5.63;1.00;;;;;;;23.41;37.28;101561.63;5923184;24;20013;-69
2022/07/28 14:38:30;;;;;;;;;;;;;;;23.45;37.22;101563.50;5930804;24;20084;-71
2022/07/28 14:45:19;;;;;;;;;;;;;;;;;;;;;
2022/07/28 14:48:37;;;;;;;2.00;1.10;;;;;;;23.45;36.36;101545.66;6070492;23;20082;-70
2022/07/28 14:51:39;;;;;;;2.05;1.08;;;;;;;23.42;36.93;101530.19;6201502;23;20082;-69
2022/07/28 14:58:33;;;;;;;4.60;1.23;;;;;;;23.36;36.47;101539.94;6162604;23;20005;-70
2022/07/28 15:01:59;;;;;;;5.55;1.30;;;;;;;23.31;37.08;101539.25;6244478;23;20008;-71
2022/07/28 15:04:40;;;;;;;5.53;1.30;;;;;;;23.29;35.64;101536.72;6136426;23;20009;-72
2022/07/28 15:14:43;;;;;;;;;;;;;;;;;;;;;
2022/07/28 15:21:15;;;;;;;2.92;1.23;;;;;;;23.24;37.44;101529.22;6150206;23;20017;-73
2022/07/28 15:24:04;;;;;;;3.10;1.10;;;;;;;23.26;37.06;101537.38;6152294;23;20012;-71
2022/07/28 15:30:49;;;;;;;5.40;1.38;;;;;;;23.25;37.34;101530.88;6180353;23;20089;-73
2022/07/28 15:33:38;;;;;;;4.82;1.25;;;;;;;23.38;38.36;101534.78;6004222;23;20067;-73
2022/07/28 15:40:57;;;;;;;2.97;1.10;;;;;;;23.32;37.06;101518.25;5923938;24;20163;-73
2022/07/28 15:50:58;;;;;;;4.18;1.40;;;;;;;23.30;37.48;101527.06;5851042;24;20021;-74
2022/07/28 15:54:39;;;;;;;3.03;1.10;;;;;;;23.26;37.52;101518.41;5902115;24;20133;-71
2022/07/28 16:19:49;;;;;;;;;;;;;;;;;;;;;
2022/07/28 16:33:32;;;;;;;2.90;1.20;;;;;;;23.20;37.24;101510.34;5945174;24;20405;-73
2022/07/28 16:43:56;;;;;;;;;;;;;;;;;;;;;
2022/07/28 17:01:25;;;;;;;;;;;;;;;;;;;;;
2022/07/28 17:07:52;;;;;;;5.43;1.30;;;;;;;23.21;37.84;101497.88;6057572;23;19990;-75
2022/07/28 17:39:27;;;;;;;4.07;1.25;;;;;;;23.15;38.83;101496.34;6053902;23;20019;-74
2022/07/28 17:42:39;;;;;;;;;;;;;;;;;;;;;
2022/07/28 17:49:16;;;;;;;1.80;0.95;;;;;;;23.15;38.33;101499.16;6237036;23;20055;-74
2022/07/28 18:02:53;;;;;;;5.47;1.27;;;;;;;23.05;37.87;101510.75;6200430;23;20008;-73
2022/07/28 18:06:23;;;;;;;3.33;1.30;;;;;;;23.09;37.96;101503.28;6083352;23;20450;-73
2022/07/28 18:27:28;;;;;;;3.28;1.30;;;;;;;22.99;38.78;101487.38;6076619;23;20461;-72
2022/07/28 18:30:59;;;;;;;3.78;1.33;;;;;;;22.93;38.48;101488.66;5975520;23;20013;-73
2022/07/28 18:41:26;;;;;;;5.68;1.30;;;;;;;22.86;39.27;101497.56;6149146;23;20438;-71
2022/07/28 18:44:55;;;;;;;4.60;1.40;;;;;;;22.81;39.28;101494.03;6264895;22;20014;-70
2022/07/28 18:51:35;;;;;;;5.30;1.20;;;;;;;22.75;39.06;101494.16;6268769;22;20057;-71
2022/07/28 19:05:35;;;;;;;7.45;1.30;;;;;;;22.63;39.14;101508.03;6119108;23;20010;-70
2022/07/28 19:08:34;;;;;;;3.17;1.08;;;;;;;22.69;39.53;101511.59;6019398;23;20044;-70
2022/07/28 19:28:36;;;;;;;5.03;1.60;;;;;;;22.51;40.43;101513.41;6273490;22;20049;-71
2022/07/28 19:32:09;;;;;;;3.25;1.20;;;;;;;22.53;40.60;101516.75;6220413;22;20011;-71
2022/07/28 19:35:11;;;;;;;4.67;1.37;;;;;;;22.60;40.76;101528.50;6201356;22;20011;-73
2022/07/28 19:56:30;;;;;;;4.80;1.48;;;;;;;22.30;42.08;101541.31;5998240;23;20083;-69
2022/07/28 19:59:30;;;;;;;;;;;;;;;;;;;;;
2022/07/28 20:09:26;;;;;;;;;;;;;;;;;;;;;
2022/07/28 20:12:49;;;;;;;;;;;;;;;;;;;;;
2022/07/28 20:44:26;;;;;;;5.15;1.60;;;;;;;21.98;41.67;101554.38;5866138;24;20062;-77
2022/07/28 20:51:49;;;;;;;2.78;1.33;;;;;;;22.00;41.98;101548.41;5791367;24;20022;-71
2022/07/28 20:55:05;;;;;;;;;;;;;;;;;;;;;
2022/07/28 21:05:04;;;;;;;4.20;1.50;;;;;;;21.91;41.99;101572.91;5860371;24;20032;-71
2022/07/28 21:08:16;;;;;;;4.53;1.50;;;;;;;21.86;41.80;101562.53;5844943;24;20479;-71
2022/07/28 21:15:03;;;;;;;2.08;1.38;;;;;;;21.88;41.84;101559.38;6074415;23;20343;-73
2022/07/28 21:50:27;;;;;;;;;;;;;;;;;;;;;
2022/07/28 22:10:17;;;;;;;3.70;1.63;;;;;;;21.25;42.61;101577.72;5923564;24;20069;-71
2022/07/28 22:12:43;;;;;;;9.98;1.92;;;;;;;21.16;43.03;101571.94;6013073;23;20011;-71
2022/07/28 22:15:09;;;;;;;5.28;1.80;;;;;;;21.26;43.40;101570.91;6116154;23;20501;-72
2022/07/28 22:17:34;;;;;;;7.00;1.80;;;;;;;21.28;43.18;101568.63;6191798;22;20423;-72
2022/07/28 22:19:59;;;;;;;4.95;1.70;;;;;;;21.20;42.97;101575.00;6272753;22;20010;-71
2022/07/28 22:22:31;;;;;;;5.47;1.60;;;;;;;21.19;43.21;101567.66;6272555;22;20035;-72
2022/07/28 22:24:56;;;;;;;8.43;1.90;;;;;;;21.13;43.14;101572.53;6276416;22;20493;-72
2022/07/28 22:27:21;;;;;;;5.40;1.70;;;;;;;21.20;43.40;101577.81;6276574;22;20257;-73
2022/07/28 22:29:47;;;;;;;5.47;1.60;;;;;;;21.15;43.61;101587.22;6274708;22;20034;-72
2022/07/28 22:32:12;;;;;;;8.27;1.80;;;;;;;21.17;43.30;101575.59;6274902;22;20013;-72
2022/07/28 22:34:37;;;;;;;4.82;1.50;;;;;;;21.09;43.36;101582.78;6276318;22;20007;-72
2022/07/28 22:37:07;;;;;;;5.22;1.63;;;;;;;21.04;43.61;101582.88;6275277;22;20064;-72